createdAt,value
2023-05-01T00:03:47.324Z,91.91
2023-05-01T00:08:49.780Z,91.66
2023-05-01T00:13:52.302Z,91.85
2023-05-01T00:18:55.355Z,91.77
2023-05-01T00:23:58.808Z,92.14
2023-05-01T00:29:01.341Z,91.38
2023-05-01T00:34:05.372Z,92.00
2023-05-01T00:39:08.662Z,91.79
2023-05-01T00:44:11.112Z,91.85
2023-05-01T00:49:13.788Z,92.59
2023-05-01T00:54:16.243Z,92.03
2023-05-01T00:59:18.931Z,92.01
2023-05-01T01:04:21.419Z,92.09
2023-05-01T01:09:33.760Z,92.54
2023-05-01T01:14:58.633Z,92.02
2023-05-01T01:20:14.021Z,92.23
2023-05-01T01:25:44.844Z,92.38
2023-05-01T01:31:08.148Z,92.73
2023-05-01T01:36:35.561Z,93.03
2023-05-01T01:41:40.298Z,92.99
2023-05-01T01:46:44.005Z,93.03
2023-05-01T01:51:47.913Z,92.98
2023-05-01T01:56:52.123Z,94.00
2023-05-01T02:01:56.662Z,93.17
2023-05-01T02:07:01.883Z,93.75
2023-05-01T02:12:07.381Z,93.81
2023-05-01T02:17:10.733Z,93.97
2023-05-01T02:22:15.163Z,93.65
2023-05-01T02:27:24.510Z,93.27
2023-05-01T02:32:26.854Z,92.63
2023-05-01T02:37:30.984Z,92.95
2023-05-01T02:42:35.610Z,92.82
2023-05-01T02:47:43.027Z,92.98
2023-05-01T02:52:47.400Z,92.32
2023-05-01T02:58:17.040Z,92.83
2023-05-01T03:03:19.534Z,92.63
2023-05-01T03:08:23.123Z,91.88
2023-05-01T03:13:27.029Z,92.62
2023-05-01T03:18:30.722Z,92.13
2023-05-01T03:23:33.573Z,92.37
2023-05-01T03:28:37.609Z,91.80
2023-05-01T03:33:40.347Z,91.86
2023-05-01T03:38:43.549Z,91.77
2023-05-01T03:43:46.099Z,91.29
2023-05-01T03:49:01.030Z,91.21
2023-05-01T03:54:07.465Z,90.42
2023-05-01T03:59:25.911Z,89.88
2023-05-01T04:04:29.963Z,89.63
2023-05-01T04:09:34.497Z,88.59
2023-05-01T04:14:37.364Z,86.76
2023-05-01T04:19:41.429Z,84.80
2023-05-01T04:24:44.541Z,81.47
2023-05-01T04:29:47.587Z,80.34
2023-05-01T04:34:50.314Z,78.85
2023-05-01T04:39:55.901Z,78.48
2023-05-01T04:45:02.916Z,74.33
2023-05-01T04:50:09.999Z,73.81
2023-05-01T04:55:12.289Z,71.32
2023-05-01T05:00:32.729Z,70.98
2023-05-01T05:05:37.110Z,70.42
2023-05-01T05:10:41.449Z,68.92
2023-05-01T05:15:55.143Z,68.63
2023-05-01T05:20:59.870Z,68.68
2023-05-01T05:26:03.435Z,70.79
2023-05-01T05:31:06.475Z,73.05
2023-05-01T05:36:11.514Z,71.02
2023-05-01T05:41:18.290Z,72.65
2023-05-01T05:46:22.125Z,67.65
2023-05-01T05:51:24.744Z,66.31
2023-05-01T05:56:27.881Z,60.08
2023-05-01T06:01:32.203Z,62.01
2023-05-01T06:06:35.221Z,55.70
2023-05-01T06:11:38.735Z,51.67
2023-05-01T06:16:41.707Z,52.40
2023-05-01T06:21:44.625Z,48.09
2023-05-01T06:26:47.494Z,51.56
2023-05-01T06:31:51.512Z,50.51
2023-05-01T06:36:55.617Z,50.11
2023-05-01T06:41:58.656Z,43.17
2023-05-01T06:47:08.222Z,41.41
2023-05-01T06:52:10.789Z,40.39
2023-05-01T06:57:13.287Z,40.32
2023-05-01T07:02:15.985Z,42.96
2023-05-01T07:07:18.518Z,43.37
2023-05-01T07:12:21.147Z,44.12
2023-05-01T07:17:23.437Z,42.92
2023-05-01T07:22:25.799Z,40.42
2023-05-01T07:27:29.102Z,45.26
2023-05-01T07:32:33.882Z,43.70
2023-05-01T07:37:37.448Z,50.87
2023-05-01T07:42:40.484Z,44.38
2023-05-01T07:47:43.504Z,48.52
2023-05-01T07:52:45.968Z,49.74
2023-05-01T07:57:48.445Z,44.94
2023-05-01T08:02:52.800Z,46.72
2023-05-01T08:07:55.817Z,48.65
2023-05-01T08:12:59.548Z,48.56
2023-05-01T08:18:02.536Z,43.82
2023-05-01T08:23:05.612Z,46.47
2023-05-01T08:28:11.009Z,44.66
2023-05-01T08:33:13.400Z,48.06
2023-05-01T08:38:16.513Z,45.34
2023-05-01T08:43:20.453Z,43.71
2023-05-01T08:48:25.677Z,45.09
2023-05-01T08:53:29.173Z,45.32
2023-05-01T08:58:36.200Z,46.19
2023-05-01T09:03:38.704Z,45.94
2023-05-01T09:08:41.177Z,45.22
2023-05-01T09:13:44.518Z,46.02
2023-05-01T09:18:47.778Z,43.39
2023-05-01T09:23:54.008Z,44.24
2023-05-01T09:28:58.470Z,43.17
2023-05-01T09:34:03.180Z,43.41
2023-05-01T09:39:05.769Z,43.03
2023-05-01T09:44:19.480Z,43.28
2023-05-01T09:49:46.502Z,43.50
2023-05-01T09:54:48.939Z,43.46
2023-05-01T10:00:02.756Z,43.64
2023-05-01T10:05:07.801Z,42.11
2023-05-01T10:10:24.392Z,42.64
2023-05-01T10:15:40.445Z,43.34
2023-05-01T10:20:43.809Z,43.32
2023-05-01T10:25:50.167Z,41.33
2023-05-01T10:30:55.473Z,42.60
2023-05-01T10:36:00.992Z,41.88
2023-05-01T10:41:04.845Z,42.17
2023-05-01T10:46:10.229Z,40.76
2023-05-01T10:51:18.346Z,41.07
2023-05-01T10:56:33.538Z,41.06
2023-05-01T11:01:37.946Z,41.59
2023-05-01T11:07:06.060Z,41.98
2023-05-01T11:12:13.259Z,42.20
2023-05-01T11:17:42.493Z,41.70
2023-05-01T11:22:49.782Z,41.67
2023-05-01T11:27:54.466Z,41.15
2023-05-01T11:32:57.954Z,41.97
2023-05-01T11:38:00.368Z,41.55
2023-05-01T11:43:07.852Z,41.64
2023-05-01T11:48:17.703Z,40.64
2023-05-01T11:53:21.043Z,40.33
2023-05-01T11:58:34.188Z,40.44
2023-05-01T12:03:44.782Z,39.29
2023-05-01T12:08:52.068Z,39.59
2023-05-01T12:13:55.926Z,38.93
2023-05-01T12:18:59.007Z,39.09
2023-05-01T12:24:19.531Z,39.68
2023-05-01T12:29:24.668Z,39.63
2023-05-01T12:34:32.979Z,40.60
2023-05-01T12:39:40.547Z,40.19
2023-05-01T12:44:44.296Z,41.36
2023-05-01T12:49:47.747Z,41.97
2023-05-01T12:54:50.723Z,42.33
2023-05-01T13:00:01.086Z,42.33
2023-05-01T13:05:12.373Z,42.17
2023-05-01T13:10:15.548Z,42.74
2023-05-01T13:15:21.843Z,43.83
2023-05-01T13:20:28.867Z,43.60
2023-05-01T13:25:31.873Z,44.51
2023-05-01T13:30:35.337Z,44.34
2023-05-01T13:35:39.959Z,45.29
2023-05-01T13:40:43.688Z,44.27
2023-05-01T13:45:47.588Z,45.11
2023-05-01T13:50:50.801Z,45.31
2023-05-01T13:55:53.103Z,45.43
2023-05-01T14:00:56.277Z,44.62
2023-05-01T14:05:58.716Z,44.35
2023-05-01T14:11:05.870Z,44.28
2023-05-01T14:16:13.478Z,44.31
2023-05-01T14:21:19.210Z,44.85
2023-05-01T14:26:24.189Z,46.66
2023-05-01T14:31:29.591Z,47.58
2023-05-01T14:36:33.158Z,48.27
2023-05-01T14:41:39.715Z,48.30
2023-05-01T14:46:52.197Z,48.48
2023-05-01T14:51:55.124Z,48.81
2023-05-01T14:56:58.026Z,49.69
2023-05-01T15:02:01.293Z,49.95
2023-05-01T15:07:04.200Z,50.01
2023-05-01T15:12:07.314Z,49.90
2023-05-01T15:17:10.767Z,50.17
2023-05-01T15:22:15.612Z,50.99
2023-05-01T15:27:18.709Z,51.02
2023-05-01T15:32:21.275Z,52.08
2023-05-01T15:37:25.000Z,51.61
2023-05-01T15:42:27.779Z,50.72
2023-05-01T15:47:30.157Z,51.68
2023-05-01T15:52:32.523Z,51.24
2023-05-01T15:57:35.380Z,51.72
2023-05-01T16:02:37.922Z,51.78
2023-05-01T16:07:40.457Z,51.73
2023-05-01T16:12:43.245Z,52.45
2023-05-01T16:17:46.818Z,52.14
2023-05-01T16:22:49.334Z,52.92
2023-05-01T16:27:51.818Z,53.69
2023-05-01T16:32:54.292Z,53.88
2023-05-01T16:37:56.951Z,54.36
2023-05-01T16:43:02.563Z,54.91
2023-05-01T16:48:05.515Z,55.80
2023-05-01T16:53:07.891Z,55.02
2023-05-01T16:58:11.131Z,55.13
2023-05-01T17:03:14.390Z,54.62
2023-05-01T17:08:16.816Z,54.77
2023-05-01T17:13:19.845Z,54.97
2023-05-01T17:18:22.536Z,55.11
2023-05-01T17:23:28.397Z,54.98
2023-05-01T17:28:31.676Z,54.61
2023-05-01T17:33:34.081Z,54.86
2023-05-01T17:38:36.714Z,54.75
2023-05-01T17:43:39.119Z,55.14
2023-05-01T17:48:42.595Z,55.33
2023-05-01T17:53:44.849Z,55.91
2023-05-01T17:58:47.411Z,55.88
2023-05-01T18:03:50.135Z,55.75
2023-05-01T18:08:52.914Z,55.23
2023-05-01T18:13:55.223Z,56.20
2023-05-01T18:18:58.428Z,55.81
2023-05-01T18:24:02.661Z,55.91
2023-05-01T18:29:05.558Z,55.41
2023-05-01T18:34:10.340Z,55.27
2023-05-01T18:39:12.575Z,55.63
2023-05-01T18:44:15.622Z,54.75
2023-05-01T18:49:23.573Z,55.58
2023-05-01T18:54:26.121Z,55.27
2023-05-01T18:59:31.210Z,55.45
2023-05-01T19:04:56.135Z,55.74
2023-05-01T19:09:59.718Z,55.78
2023-05-01T19:15:02.307Z,56.54
2023-05-01T19:20:07.323Z,56.00
2023-05-01T19:25:10.057Z,56.56
2023-05-01T19:30:12.561Z,55.91
2023-05-01T19:35:14.951Z,56.11
2023-05-01T19:40:17.620Z,56.31
2023-05-01T19:45:20.090Z,56.46
2023-05-01T19:50:22.949Z,56.19
2023-05-01T19:55:26.401Z,57.10
2023-05-01T20:00:29.108Z,57.16
2023-05-01T20:05:32.676Z,57.67
2023-05-01T20:10:35.134Z,57.51
2023-05-01T20:15:39.516Z,57.19
2023-05-01T20:20:42.906Z,57.65
2023-05-01T20:25:48.503Z,57.76
2023-05-01T20:30:52.044Z,58.31
2023-05-01T20:35:55.403Z,57.85
2023-05-01T20:40:57.854Z,57.93
2023-05-01T20:46:00.678Z,58.28
2023-05-01T20:51:04.969Z,57.86
2023-05-01T20:56:08.603Z,57.63
2023-05-01T21:01:12.300Z,57.96
2023-05-01T21:06:15.376Z,56.99
2023-05-01T21:11:19.990Z,56.62
2023-05-01T21:16:23.052Z,57.47
2023-05-01T21:21:27.114Z,58.26
2023-05-01T21:26:29.977Z,57.91
2023-05-01T21:31:32.868Z,58.12
2023-05-01T21:36:45.851Z,58.04
2023-05-01T21:41:49.691Z,58.22
2023-05-01T21:46:56.309Z,58.10
2023-05-01T21:52:00.181Z,58.91
2023-05-01T21:57:05.655Z,58.64
2023-05-01T22:02:10.223Z,59.50
2023-05-01T22:07:13.003Z,59.58
2023-05-01T22:12:17.161Z,58.99
2023-05-01T22:17:24.479Z,58.59
2023-05-01T22:22:27.591Z,58.64
2023-05-01T22:27:32.853Z,58.33
2023-05-01T22:32:36.375Z,58.68
2023-05-01T22:37:39.321Z,58.72
2023-05-01T22:42:42.023Z,58.94
2023-05-01T22:47:45.502Z,59.14
2023-05-01T22:52:48.050Z,59.08
2023-05-01T22:57:50.419Z,58.55
2023-05-01T23:02:53.241Z,59.16
2023-05-01T23:07:56.239Z,58.35
2023-05-01T23:12:58.848Z,58.14
2023-05-01T23:18:01.510Z,57.78
2023-05-01T23:23:08.000Z,57.75
2023-05-01T23:28:12.108Z,57.22
2023-05-01T23:33:18.297Z,57.58
2023-05-01T23:38:22.486Z,57.62
2023-05-01T23:43:24.880Z,57.95
2023-05-01T23:48:27.653Z,57.64
2023-05-01T23:53:30.270Z,57.92
2023-05-01T23:58:32.517Z,58.55
